createdAt,value
2018-10-03T00:01:10.890Z,15.83
2018-10-03T00:03:38.729Z,14.13
2018-10-03T00:06:06.470Z,14.23
2018-10-03T00:08:34.214Z,16.80
2018-10-03T00:11:02.271Z,14.20
2018-10-03T00:13:30.011Z,14.43
2018-10-03T00:15:57.738Z,17.17
2018-10-03T00:18:25.467Z,14.90
2018-10-03T01:06:36.121Z,21.80
2018-10-03T01:09:04.619Z,16.43
2018-10-03T01:11:32.354Z,16.37
2018-10-03T01:14:00.088Z,16.37
2018-10-03T01:16:27.826Z,15.13
2018-10-03T01:18:55.558Z,15.13
2018-10-03T01:21:23.294Z,16.53
2018-10-03T01:23:51.039Z,16.63
2018-10-03T01:26:18.782Z,17.67
2018-10-03T01:28:46.505Z,18.67
2018-10-03T01:31:14.265Z,17.67
2018-10-03T01:33:42.024Z,19.87
2018-10-03T01:36:09.760Z,17.40
2018-10-03T01:38:37.504Z,18.97
2018-10-03T01:41:05.257Z,17.83
2018-10-03T01:43:32.985Z,19.40
2018-10-03T01:46:00.710Z,18.60
2018-10-03T01:48:28.445Z,20.97
2018-10-03T01:50:56.173Z,21.03
2018-10-03T01:53:23.902Z,19.93
2018-10-03T01:55:51.642Z,18.70
2018-10-03T01:58:19.369Z,19.37
2018-10-03T02:00:47.108Z,20.17
2018-10-03T02:03:14.838Z,19.13
2018-10-03T02:05:42.566Z,19.00
2018-10-03T02:08:10.322Z,18.33
2018-10-03T02:10:38.059Z,20.20
2018-10-03T02:13:05.807Z,18.80
2018-10-03T02:15:33.537Z,19.60
2018-10-03T02:18:01.271Z,19.63
2018-10-03T02:20:29.118Z,20.37
2018-10-03T02:22:56.876Z,19.67
2018-10-03T02:25:24.610Z,19.97
2018-10-03T02:27:52.338Z,21.03
2018-10-03T02:30:20.078Z,20.43
2018-10-03T02:32:47.845Z,21.30
2018-10-03T02:35:15.618Z,21.37
2018-10-03T02:37:43.356Z,20.87
2018-10-03T02:40:11.089Z,20.53
2018-10-03T02:42:38.821Z,20.13
2018-10-03T02:45:06.984Z,20.23
2018-10-03T02:47:34.727Z,20.60
2018-10-03T02:50:02.490Z,19.73
2018-10-03T02:52:30.214Z,21.53
2018-10-03T02:54:58.049Z,21.40
2018-10-03T02:57:25.775Z,22.07
2018-10-03T02:59:53.524Z,19.53
2018-10-03T03:02:21.295Z,22.70
2018-10-03T03:04:49.049Z,21.97
2018-10-03T03:07:16.796Z,22.17
2018-10-03T03:09:44.541Z,22.17
2018-10-03T03:12:12.278Z,21.23
2018-10-03T03:14:40.115Z,21.23
2018-10-03T03:17:07.851Z,33.30
2018-10-03T03:19:35.611Z,24.77
2018-10-03T03:22:03.347Z,22.57
2018-10-03T03:24:31.083Z,22.47
2018-10-03T03:26:58.837Z,23.90
2018-10-03T03:29:26.593Z,23.23
2018-10-03T03:31:54.330Z,26.53
2018-10-03T03:34:22.088Z,23.87
2018-10-03T03:36:49.838Z,23.17
2018-10-03T03:39:17.595Z,23.70
2018-10-03T03:41:45.326Z,22.73
2018-10-03T03:44:13.046Z,24.57
2018-10-03T03:46:40.785Z,23.87
2018-10-03T03:49:08.511Z,26.33
2018-10-03T03:51:36.257Z,23.20
2018-10-03T03:54:03.996Z,26.00
2018-10-03T03:56:31.744Z,25.90
2018-10-03T03:58:59.498Z,28.10
2018-10-03T04:01:27.239Z,25.37
2018-10-03T04:03:54.966Z,24.20
2018-10-03T04:06:22.702Z,25.40
2018-10-03T04:08:50.432Z,23.13
2018-10-03T04:11:18.218Z,21.13
2018-10-03T04:13:46.654Z,26.47
2018-10-03T04:16:14.440Z,24.70
2018-10-03T04:18:42.166Z,25.13
2018-10-03T04:21:09.890Z,24.00
2018-10-03T04:23:37.625Z,25.10
2018-10-03T04:26:05.418Z,28.07
2018-10-03T04:28:33.142Z,24.17
2018-10-03T04:31:00.887Z,30.97
2018-10-03T04:33:28.618Z,23.83
2018-10-03T04:35:56.334Z,24.07
2018-10-03T04:38:24.094Z,26.30
2018-10-03T04:40:51.830Z,26.27
2018-10-03T04:43:19.553Z,23.83
2018-10-03T04:45:47.314Z,26.50
2018-10-03T04:48:15.026Z,30.40
2018-10-03T04:50:42.753Z,31.93
2018-10-03T04:53:10.513Z,25.87
2018-10-03T04:55:38.249Z,28.77
2018-10-03T04:58:05.979Z,25.10
2018-10-03T05:00:33.748Z,26.43
2018-10-03T05:03:01.479Z,31.47
2018-10-03T05:05:29.206Z,27.43
2018-10-03T05:07:56.937Z,33.63
2018-10-03T05:10:24.671Z,36.53
2018-10-03T05:12:52.425Z,24.60
2018-10-03T05:15:20.190Z,27.70
2018-10-03T05:17:47.918Z,33.23
2018-10-03T05:20:15.665Z,28.30
2018-10-03T05:22:43.412Z,21.67
2018-10-03T05:25:11.178Z,28.67
2018-10-03T05:27:38.919Z,26.63
2018-10-03T05:30:06.699Z,27.27
2018-10-03T05:32:34.447Z,26.10
2018-10-03T05:35:02.239Z,27.17
2018-10-03T05:37:29.986Z,28.17
2018-10-03T05:39:57.719Z,30.83
2018-10-03T05:42:25.438Z,31.87
2018-10-03T05:44:53.287Z,29.53
2018-10-03T05:47:21.022Z,29.57
2018-10-03T05:49:48.761Z,31.43
2018-10-03T05:52:16.490Z,30.57
2018-10-03T05:54:44.256Z,30.63
2018-10-03T05:57:12.019Z,26.30
2018-10-03T05:59:39.762Z,30.27
2018-10-03T06:02:07.539Z,25.97
2018-10-03T06:04:35.294Z,30.00
2018-10-03T06:07:03.034Z,30.73
2018-10-03T06:09:30.770Z,27.43
2018-10-03T06:11:58.527Z,32.93
2018-10-03T06:14:26.262Z,29.43
2018-10-03T06:16:54.007Z,29.13
2018-10-03T06:19:21.734Z,31.47
2018-10-03T06:21:49.554Z,31.27
2018-10-03T06:24:17.378Z,30.60
2018-10-03T06:26:45.109Z,30.63
2018-10-03T06:29:12.838Z,34.03
2018-10-03T06:31:40.618Z,28.00
2018-10-03T06:34:08.406Z,31.37
2018-10-03T06:36:36.145Z,31.70
2018-10-03T06:39:05.313Z,31.50
2018-10-03T06:41:33.073Z,33.03
2018-10-03T06:44:00.795Z,32.93
2018-10-03T06:46:28.532Z,33.67
2018-10-03T06:48:56.271Z,34.63
2018-10-03T06:51:24.013Z,35.63
2018-10-03T06:53:51.758Z,31.83
2018-10-03T06:56:20.066Z,31.97
2018-10-03T06:58:47.809Z,30.90
2018-10-03T07:01:15.539Z,31.10
2018-10-03T07:03:43.278Z,34.20
2018-10-03T07:06:11.010Z,27.87
2018-10-03T07:08:38.833Z,22.63
2018-10-03T07:11:06.550Z,34.33
2018-10-03T07:13:34.281Z,24.63
2018-10-03T07:16:02.006Z,28.63
2018-10-03T07:18:29.738Z,35.17
2018-10-03T07:20:57.470Z,32.47
2018-10-03T07:23:25.193Z,33.03
2018-10-03T07:25:52.930Z,32.70
2018-10-03T07:28:20.673Z,31.60
2018-10-03T07:30:48.455Z,28.43
2018-10-03T07:33:16.205Z,29.27
2018-10-03T07:35:43.946Z,35.00
2018-10-03T07:38:11.678Z,33.40
2018-10-03T07:40:39.459Z,29.60
2018-10-03T07:43:07.187Z,30.97
2018-10-03T07:45:34.923Z,32.37
2018-10-03T07:48:02.686Z,27.53
2018-10-03T07:50:30.433Z,33.90
2018-10-03T07:52:58.166Z,30.40
2018-10-03T07:55:25.911Z,29.40
2018-10-03T07:57:53.663Z,26.13
2018-10-03T08:00:27.251Z,28.27
2018-10-03T08:02:55.054Z,30.60
2018-10-03T08:05:22.794Z,30.10
2018-10-03T08:07:50.626Z,29.27
2018-10-03T08:10:18.465Z,33.33
2018-10-03T08:12:46.234Z,32.43
2018-10-03T08:15:14.378Z,31.03
2018-10-03T08:17:42.391Z,33.20
2018-10-03T08:20:10.180Z,31.47
2018-10-03T08:22:38.237Z,34.27
2018-10-03T08:25:06.103Z,25.53
2018-10-03T08:27:33.906Z,28.87
2018-10-03T08:30:01.828Z,27.90
2018-10-03T08:32:34.065Z,30.63
2018-10-03T08:35:01.778Z,31.17
2018-10-03T08:37:29.549Z,27.00
2018-10-03T08:39:57.283Z,29.40
2018-10-03T08:42:25.101Z,30.50
2018-10-03T08:44:52.835Z,30.33
2018-10-03T08:47:20.677Z,28.70
2018-10-03T08:49:48.412Z,28.33
2018-10-03T08:52:16.180Z,28.87
2018-10-03T08:54:43.927Z,29.07
2018-10-03T08:57:11.752Z,26.73
2018-10-03T08:59:39.517Z,23.43
2018-10-03T09:02:07.295Z,26.17
2018-10-03T09:04:35.452Z,23.47
2018-10-03T09:07:04.831Z,22.57
2018-10-03T09:09:32.553Z,25.17
2018-10-03T09:12:00.301Z,24.80
2018-10-03T09:14:28.054Z,23.13
2018-10-03T09:16:55.818Z,24.97
2018-10-03T09:19:23.582Z,24.57
2018-10-03T09:21:51.424Z,23.80
2018-10-03T09:24:19.167Z,22.03
2018-10-03T09:26:46.937Z,22.10
2018-10-03T09:29:14.722Z,22.60
2018-10-03T09:31:42.579Z,23.40
2018-10-03T09:34:10.327Z,23.63
2018-10-03T09:36:38.095Z,24.13
2018-10-03T09:39:08.423Z,24.07
2018-10-03T09:41:36.297Z,23.73
2018-10-03T09:44:04.047Z,21.47
2018-10-03T09:46:31.768Z,24.37
2018-10-03T09:48:59.490Z,24.93
2018-10-03T09:51:27.234Z,22.70
2018-10-03T09:53:55.031Z,29.97
2018-10-03T09:56:22.846Z,25.40
2018-10-03T09:58:50.590Z,36.00
2018-10-03T10:01:23.891Z,29.93
2018-10-03T10:03:51.626Z,24.10
2018-10-03T10:06:19.390Z,25.20
2018-10-03T10:08:47.235Z,26.83
2018-10-03T10:11:15.020Z,23.90
2018-10-03T10:13:42.851Z,25.10
2018-10-03T10:16:10.608Z,25.40
2018-10-03T10:18:38.358Z,24.13
2018-10-03T10:21:06.125Z,22.53
2018-10-03T10:23:34.142Z,25.80
2018-10-03T10:26:01.906Z,26.73
2018-10-03T10:28:29.671Z,24.30
2018-10-03T10:30:57.434Z,23.47
2018-10-03T10:33:25.202Z,23.80
2018-10-03T10:35:52.934Z,25.17
2018-10-03T10:38:20.673Z,24.90
2018-10-03T10:40:48.559Z,25.20
2018-10-03T10:43:16.782Z,24.10
2018-10-03T10:45:44.533Z,26.07
2018-10-03T10:48:12.293Z,28.03
2018-10-03T10:50:40.054Z,26.13
2018-10-03T10:53:08.069Z,23.33
2018-10-03T10:55:35.816Z,28.47
2018-10-03T10:58:03.575Z,27.23
2018-10-03T11:00:31.350Z,23.50
2018-10-03T11:02:59.129Z,26.00
2018-10-03T11:05:26.900Z,26.10
2018-10-03T11:07:54.658Z,28.47
2018-10-03T11:10:22.438Z,27.00
2018-10-03T11:12:50.164Z,25.50
2018-10-03T11:15:17.899Z,27.27
2018-10-03T11:17:45.643Z,24.77
2018-10-03T11:20:13.377Z,30.33
2018-10-03T11:22:41.139Z,24.10
2018-10-03T11:25:08.914Z,27.63
2018-10-03T11:27:36.707Z,29.40
2018-10-03T11:30:04.950Z,28.77
2018-10-03T11:32:32.686Z,31.43
2018-10-03T11:35:00.484Z,29.27
2018-10-03T11:37:28.223Z,32.07
2018-10-03T11:39:56.001Z,30.67
2018-10-03T11:42:23.745Z,30.43
2018-10-03T11:44:51.487Z,29.53
2018-10-03T11:47:19.213Z,30.87
2018-10-03T11:49:46.987Z,32.13
2018-10-03T11:52:14.750Z,30.67
2018-10-03T11:54:42.473Z,31.13
2018-10-03T11:57:10.326Z,31.17
2018-10-03T11:59:38.072Z,27.43
2018-10-03T12:02:05.779Z,32.17
2018-10-03T12:04:33.569Z,32.07
2018-10-03T12:07:01.302Z,32.27
2018-10-03T12:09:29.062Z,31.20
2018-10-03T12:11:56.838Z,32.53
2018-10-03T12:14:24.585Z,31.73
2018-10-03T12:16:52.330Z,31.23
2018-10-03T12:19:20.088Z,33.27
2018-10-03T12:21:47.866Z,29.00
2018-10-03T12:24:15.653Z,31.87
2018-10-03T12:26:43.433Z,28.83
2018-10-03T12:29:11.202Z,27.10
2018-10-03T12:31:38.951Z,27.00
2018-10-03T12:34:06.775Z,27.10
2018-10-03T12:36:34.545Z,30.10
2018-10-03T12:39:02.310Z,27.57
2018-10-03T12:41:30.074Z,26.40
2018-10-03T12:43:57.797Z,28.00
2018-10-03T12:46:25.529Z,26.50
2018-10-03T12:48:53.264Z,25.90
2018-10-03T12:51:21.001Z,27.23
2018-10-03T12:53:48.770Z,25.80
2018-10-03T12:56:16.520Z,27.07
2018-10-03T12:58:44.263Z,28.13
2018-10-03T13:01:12.110Z,28.27
2018-10-03T13:03:39.834Z,25.70
2018-10-03T13:06:07.613Z,26.37
2018-10-03T13:08:35.411Z,24.43
2018-10-03T13:11:03.152Z,26.30
2018-10-03T13:13:30.887Z,24.47
2018-10-03T13:15:58.675Z,26.20
2018-10-03T13:18:26.424Z,26.90
2018-10-03T13:20:54.231Z,24.20
2018-10-03T13:23:21.997Z,24.43
2018-10-03T13:25:49.750Z,25.47
2018-10-03T13:28:17.522Z,25.17
2018-10-03T13:30:45.280Z,25.20
2018-10-03T13:33:13.048Z,24.27
2018-10-03T13:35:40.815Z,24.10
2018-10-03T13:38:08.567Z,26.67
2018-10-03T13:40:36.302Z,23.93
2018-10-03T13:43:04.047Z,23.27
2018-10-03T13:45:31.801Z,23.17
2018-10-03T13:47:59.562Z,22.80
2018-10-03T13:50:27.310Z,23.63
2018-10-03T13:52:55.038Z,23.63
2018-10-03T13:55:22.806Z,25.97
2018-10-03T13:57:50.596Z,22.93
2018-10-03T14:00:18.345Z,24.70
2018-10-03T14:02:46.430Z,25.50
2018-10-03T14:05:14.176Z,22.63
2018-10-03T14:07:41.938Z,25.20
2018-10-03T14:10:09.676Z,25.53
2018-10-03T14:12:37.424Z,23.07
2018-10-03T14:15:05.267Z,24.27
2018-10-03T14:17:32.992Z,24.73
2018-10-03T14:20:00.773Z,20.83
2018-10-03T14:22:28.517Z,23.60
2018-10-03T14:24:56.263Z,22.57
2018-10-03T14:27:24.086Z,21.90
2018-10-03T14:29:51.903Z,23.27
2018-10-03T14:32:19.628Z,23.63
2018-10-03T14:34:47.432Z,22.43
2018-10-03T14:37:15.247Z,22.33
2018-10-03T14:39:43.077Z,22.13
2018-10-03T14:42:10.773Z,23.23
2018-10-03T14:44:38.546Z,22.30
2018-10-03T14:47:06.375Z,24.63
2018-10-03T14:49:34.116Z,22.50
2018-10-03T14:52:01.895Z,24.20
2018-10-03T14:54:29.637Z,23.93
2018-10-03T14:56:57.380Z,25.17
2018-10-03T14:59:25.137Z,23.70
2018-10-03T15:01:52.873Z,24.53
2018-10-03T15:04:20.590Z,25.60
2018-10-03T15:06:48.401Z,26.50
2018-10-03T15:09:16.143Z,28.10
2018-10-03T15:11:43.888Z,26.80
2018-10-03T15:14:11.651Z,25.90
2018-10-03T15:16:39.432Z,26.30
2018-10-03T15:19:07.443Z,28.47
2018-10-03T15:21:35.191Z,26.47
2018-10-03T15:24:02.975Z,25.20
2018-10-03T15:26:30.699Z,25.37
2018-10-03T15:28:58.435Z,31.10
2018-10-03T15:31:26.170Z,30.13
2018-10-03T15:33:53.920Z,27.20
2018-10-03T15:36:21.781Z,25.97
2018-10-03T15:38:49.508Z,31.77
2018-10-03T15:41:17.270Z,31.63
2018-10-03T15:43:45.041Z,29.93
2018-10-03T15:46:12.776Z,29.80
2018-10-03T15:48:40.501Z,31.20
2018-10-03T15:51:08.247Z,32.40
2018-10-03T15:53:35.965Z,32.13
2018-10-03T15:56:03.730Z,30.97
2018-10-03T15:58:31.511Z,35.37
2018-10-03T16:00:59.275Z,34.63
2018-10-03T16:03:27.047Z,43.70
2018-10-03T16:05:55.067Z,49.50
2018-10-03T16:08:22.797Z,49.70
2018-10-03T16:10:50.518Z,50.43
2018-10-03T16:13:18.278Z,52.03
2018-10-03T16:15:46.012Z,44.10
2018-10-03T16:18:13.734Z,43.13
2018-10-03T16:20:41.454Z,51.60
2018-10-03T16:23:09.188Z,50.97
2018-10-03T16:25:36.947Z,52.07
2018-10-03T16:28:04.801Z,53.07
2018-10-03T16:30:32.529Z,52.77
2018-10-03T16:33:00.254Z,58.37
2018-10-03T16:35:27.975Z,54.73
2018-10-03T16:37:55.751Z,56.37
2018-10-03T16:40:23.526Z,58.60
2018-10-03T16:42:51.279Z,63.63
2018-10-03T16:45:19.037Z,55.40
2018-10-03T16:47:46.753Z,50.13
2018-10-03T16:50:14.475Z,67.10
2018-10-03T16:52:42.232Z,61.57
2018-10-03T16:55:10.055Z,61.80
2018-10-03T16:57:37.780Z,65.67
2018-10-03T17:00:05.603Z,61.27
2018-10-03T17:02:33.338Z,59.40
2018-10-03T17:05:01.117Z,51.57
2018-10-03T17:07:28.860Z,47.87
2018-10-03T17:09:56.585Z,44.37
2018-10-03T17:12:24.355Z,42.13
2018-10-03T17:14:52.074Z,42.40
2018-10-03T17:17:19.820Z,39.40
2018-10-03T17:19:47.587Z,38.17
2018-10-03T17:22:15.318Z,32.33
2018-10-03T17:24:43.076Z,32.27
2018-10-03T17:27:10.849Z,27.07
2018-10-03T17:29:38.603Z,27.60
2018-10-03T17:32:06.746Z,26.77
2018-10-03T17:34:34.541Z,31.00
2018-10-03T17:37:02.274Z,30.50
2018-10-03T17:39:30.052Z,31.93
2018-10-03T17:41:58.041Z,31.60
2018-10-03T17:44:25.792Z,33.60
2018-10-03T17:46:54.909Z,36.77
2018-10-03T17:49:22.640Z,31.17
2018-10-03T17:51:50.390Z,32.00
2018-10-03T17:54:18.198Z,30.93
2018-10-03T17:56:45.964Z,31.60
2018-10-03T17:59:13.752Z,32.10
2018-10-03T18:01:47.400Z,29.17
2018-10-03T18:04:15.186Z,33.40
2018-10-03T18:06:44.148Z,32.50
2018-10-03T18:09:13.364Z,35.50
2018-10-03T18:11:41.211Z,33.37
2018-10-03T18:14:09.260Z,34.67
2018-10-03T18:16:37.058Z,34.87
2018-10-03T18:19:04.884Z,36.63
2018-10-03T18:21:32.918Z,35.93
2018-10-03T18:24:01.110Z,32.53
2018-10-03T18:26:28.867Z,34.27
2018-10-03T18:28:56.617Z,32.10
2018-10-03T18:31:24.365Z,35.70
2018-10-03T18:33:54.276Z,30.60
2018-10-03T18:36:22.140Z,31.77
2018-10-03T18:38:50.172Z,31.43
2018-10-03T18:41:19.628Z,29.60
2018-10-03T18:43:47.496Z,32.27
2018-10-03T18:46:15.396Z,32.07
2018-10-03T18:48:43.222Z,31.73
2018-10-03T18:51:11.145Z,35.03
2018-10-03T18:53:38.951Z,35.23
2018-10-03T18:56:06.749Z,34.00
2018-10-03T18:58:34.796Z,30.53
2018-10-03T19:01:02.688Z,31.53
2018-10-03T19:03:30.873Z,31.27
2018-10-03T19:05:58.647Z,33.30
2018-10-03T19:08:28.351Z,29.23
2018-10-03T19:10:56.291Z,30.77
2018-10-03T19:13:24.017Z,31.67
2018-10-03T19:15:51.763Z,33.37
2018-10-03T19:18:20.125Z,33.17
2018-10-03T19:20:48.167Z,31.23
2018-10-03T19:23:15.913Z,32.33
2018-10-03T19:25:43.694Z,30.80
2018-10-03T19:28:11.792Z,28.37
2018-10-03T19:30:39.813Z,35.30
2018-10-03T19:33:07.562Z,33.00
2018-10-03T19:35:36.525Z,28.90
2018-10-03T19:38:05.472Z,30.37
2018-10-03T19:40:34.245Z,28.20
2018-10-03T19:43:02.584Z,25.90
2018-10-03T19:45:30.627Z,24.97
2018-10-03T19:47:58.719Z,23.77
2018-10-03T19:50:26.470Z,22.43
2018-10-03T19:52:54.335Z,19.40
2018-10-03T19:55:22.099Z,22.70
2018-10-03T19:57:49.899Z,22.83
2018-10-03T20:00:17.625Z,19.90
2018-10-03T20:02:45.355Z,21.23
2018-10-03T20:05:13.100Z,22.90
2018-10-03T20:07:40.855Z,19.93
2018-10-03T20:10:08.647Z,19.87
2018-10-03T20:12:36.409Z,18.63
2018-10-03T20:15:04.383Z,18.03
2018-10-03T20:17:32.126Z,19.00
2018-10-03T20:19:59.861Z,24.20
2018-10-03T20:22:27.681Z,22.10
2018-10-03T20:24:55.432Z,23.80
2018-10-03T20:27:23.236Z,21.43
2018-10-03T20:29:50.968Z,23.47
2018-10-03T20:32:18.721Z,21.03
2018-10-03T20:34:46.456Z,19.87
2018-10-03T20:37:14.191Z,20.27
2018-10-03T20:39:41.917Z,19.83
2018-10-03T20:42:09.655Z,20.10
2018-10-03T20:44:37.398Z,18.43
2018-10-03T20:47:05.242Z,20.53
2018-10-03T20:49:33.016Z,17.77
2018-10-03T20:52:00.745Z,21.93
2018-10-03T20:54:28.512Z,19.17
2018-10-03T20:56:56.254Z,17.27
2018-10-03T20:59:23.981Z,19.03
2018-10-03T21:01:51.756Z,14.87
2018-10-03T21:04:19.490Z,19.77
2018-10-03T21:06:47.232Z,17.40
2018-10-03T21:09:15.018Z,15.97
2018-10-03T21:11:42.796Z,16.27
2018-10-03T21:14:10.607Z,17.10
2018-10-03T21:16:38.403Z,15.57
2018-10-03T21:19:06.487Z,19.97
2018-10-03T21:21:34.232Z,18.00
2018-10-03T21:24:01.950Z,16.93
2018-10-03T21:26:29.766Z,17.47
2018-10-03T21:28:57.489Z,18.20
2018-10-03T21:31:25.247Z,16.90
2018-10-03T21:33:53.208Z,19.23
2018-10-03T21:36:20.964Z,17.77
2018-10-03T21:38:48.700Z,18.43
2018-10-03T21:41:16.612Z,16.50
2018-10-03T21:43:44.463Z,17.10
2018-10-03T21:46:12.213Z,17.80
2018-10-03T21:48:39.938Z,18.13
2018-10-03T21:51:07.690Z,17.00
2018-10-03T21:53:35.999Z,15.17
2018-10-03T21:56:03.762Z,14.43
2018-10-03T21:58:31.508Z,16.60
2018-10-03T22:00:59.261Z,15.30
2018-10-03T22:03:27.002Z,14.73
2018-10-03T22:05:54.746Z,16.47
2018-10-03T22:08:22.472Z,14.83
2018-10-03T22:10:50.230Z,13.53
2018-10-03T22:13:17.968Z,16.30
2018-10-03T22:15:45.873Z,18.97
2018-10-03T22:18:13.661Z,16.40
2018-10-03T22:20:41.412Z,15.60
2018-10-03T22:23:09.306Z,15.67
2018-10-03T22:25:37.084Z,18.27
2018-10-03T22:28:04.917Z,14.40
2018-10-03T22:30:32.667Z,17.60
2018-10-03T22:33:00.411Z,19.30
2018-10-03T22:35:28.144Z,17.03
2018-10-03T22:37:55.887Z,16.10
2018-10-03T22:40:23.636Z,16.37
2018-10-03T22:42:51.371Z,16.27
2018-10-03T22:45:19.095Z,15.97
2018-10-03T22:47:46.851Z,16.03
2018-10-03T22:50:14.565Z,15.37
2018-10-03T22:52:42.310Z,18.17
2018-10-03T22:55:10.047Z,18.20
2018-10-03T22:57:37.784Z,15.03
2018-10-03T23:00:07.192Z,17.80
2018-10-03T23:02:34.933Z,15.27
2018-10-03T23:05:02.721Z,19.50
2018-10-03T23:07:30.548Z,20.70
2018-10-03T23:09:58.266Z,15.77
2018-10-03T23:12:25.993Z,16.07
2018-10-03T23:14:53.727Z,16.57
2018-10-03T23:17:21.529Z,19.50
2018-10-03T23:19:49.276Z,17.73
2018-10-03T23:22:17.035Z,16.33
2018-10-03T23:24:44.780Z,18.13
2018-10-03T23:27:12.498Z,18.10
2018-10-03T23:29:40.228Z,16.50
2018-10-03T23:32:07.950Z,14.80
2018-10-03T23:34:35.704Z,19.63
2018-10-03T23:37:03.704Z,16.17
2018-10-03T23:39:31.439Z,19.10
2018-10-03T23:41:59.210Z,16.40
2018-10-03T23:44:26.946Z,15.37
2018-10-03T23:46:54.702Z,13.50
2018-10-03T23:49:22.428Z,12.50
2018-10-03T23:51:50.173Z,14.10
2018-10-03T23:54:18.197Z,11.17
2018-10-03T23:56:45.917Z,9.80
2018-10-03T23:59:13.621Z,10.87
